Portada
METAR-TAF:

METAR-TAF

Aeroports :

Salalah, Oman

latitud: 17-02N, longitud: 054-05E, altitud: 20 m

Observació

L'informe es va fer fa 23 minuts, a les 23:50 UTC
Vent 14 kt del Nord
Temperatura 23°C
Humitat 61%
Pressió 1015 hPa
Visibilitat 10 km o més
sense núvols per sota de 1500 mi sense presència de cumulonimbus.

METAR: OOSA 212350Z 36014KT CAVOK 23/15 Q1015 NOSIG

Hora: 04:13 (00:13 UTC)

Pronòstic

L'informe es va fer fa 6 hores i 33 minuts, a les 17:40 UTC
Pronòstic vàlid del 21 a les 18 UTC al 23 a les 00 UTC
Vent 20 kt del Nord
Visibilitat: 9000 m

TAF: OOSA 211740Z 2118/2300 36020KT 9000 NSC

Observacions i pronòstics meteorològics de més de 4000 aeroports (METAR i TAF).

Les estacions disponibles són els punts grocs i vermells al mapa.

Posi el ratolí al punt desitjat per veure el nom de l'estació.

Feu clic per veure les observacions i els pronòstics meteorològics.

Per canviar el mapa: feu clic els botons verds amb una creu de color negre per apropar; al botó verd amb un guió per allunyar la imatge; o en les fletxes verdes per a mapes adjacents.


METAR-TAF: